Terminal Aerodrome Forecast
Issued by NWS St Louis, MO

Home | Current Version | Previous Version | Text Only | Print | Product List | Glossary On
Versions: 1 2 3 4 5 6 7 8 9 10 11 12 13 14 15 16 17 18 19 20
000
FTUS43 KLSX 242320
TAFCOU
TAF
KCOU 242320Z 2500/2524 32008KT P6SM BKN070
     FM250300 32006KT P6SM SCT090
      TEMPO 2510/2513 4SM BR
     FM251300 29004KT P6SM FEW200
     FM251900 22005KT P6SM FEW250=

USA.gov is the U.S. government's official web portal to all federal, state and local government web resources and services.